PWSweather.com
Personal Weather Stations
Station Observations
KVAGLENALL
West Henrico, Glen Allen, VA 23060-6503

West HenricoGlen Allen, VA 23060-6503

Lat: 37.6554, Lon: -77.5693

Elevation: 273

Station Type: Davis Vantage Pro II

www.glenallenweather.com

High Low Average
Temperature 66.8°F19.3°C 34.5°F1.4°C 49.4°F9.7°C
Dew Point 63.5°F17.5°C 29.1°F-1.6°C 45.6°F7.6°C
Winds 15.0 mph 24.1 kmh Calm Calm 5.0 mph SE8.0 kmh SE
Wind Gusts 24.2 mph38.9 kmh -- 8.0 mph12.9 kmh
Humidity 95% 67% 87%
Pressure 30.67 in1038.6 mb 30.00 in1015.9 mb -
Precipitation 0.00 in0.0 mm - -
Hour Temp Dew Point Humidity Winds Wind Gusts Pressure Precip Precip Rate Daily Precip Total
12:00 AM 66.8°F19.3°C 63.5°F17.5°C 89% 5.0 mph SSW8.0 kmh SSW 11.1 mph17.9 kmh 30.00 in1015.9 mb 0.00 in0.0 mm 0.00 in0.0 mm 0.00 in0.0 mm
12:15 AM 66.6°F19.2°C 63.3°F17.4°C 89% 7.0 mph SW11.3 kmh SW 7.1 mph11.4 kmh 30.00 in1015.9 mb 0.00 in0.0 mm 0.00 in0.0 mm 0.00 in0.0 mm
12:30 AM 66.6°F19.2°C 63.3°F17.4°C 89% 5.0 mph SW8.0 kmh SW 7.1 mph11.4 kmh 30.01 in1016.3 mb 0.00 in0.0 mm 0.00 in0.0 mm 0.00 in0.0 mm
12:45 AM 66.4°F19.1°C 63.1°F17.3°C 89% 4.0 mph SSW6.4 kmh SSW 8.1 mph13.0 kmh 30.01 in1016.3 mb 0.00 in0.0 mm 0.00 in0.0 mm 0.00 in0.0 mm
01:00 AM 66.2°F19.0°C 63.2°F17.3°C 90% 8.0 mph SSW12.9 kmh SSW 11.1 mph17.9 kmh 30.02 in1016.6 mb 0.00 in0.0 mm 0.00 in0.0 mm 0.00 in0.0 mm
01:15 AM 66.1°F18.9°C 63.1°F17.3°C 90% 6.0 mph SSW9.7 kmh SSW 9.1 mph14.6 kmh 30.04 in1017.3 mb 0.00 in0.0 mm 0.00 in0.0 mm 0.00 in0.0 mm
01:30 AM 66.1°F18.9°C 63.1°F17.3°C 90% 4.0 mph SSW6.4 kmh SSW 8.1 mph13.0 kmh 30.04 in1017.3 mb 0.00 in0.0 mm 0.00 in0.0 mm 0.00 in0.0 mm
01:45 AM 66.1°F18.9°C 63.1°F17.3°C 90% 6.0 mph SSW9.7 kmh SSW 7.1 mph11.4 kmh 30.04 in1017.3 mb 0.00 in0.0 mm 0.00 in0.0 mm 0.00 in0.0 mm
02:00 AM 66.1°F18.9°C 63.1°F17.3°C 90% 8.0 mph SW12.9 kmh SW 14.1 mph22.7 kmh 30.04 in1017.3 mb 0.00 in0.0 mm 0.00 in0.0 mm 0.00 in0.0 mm
02:15 AM 66.2°F19.0°C 63.2°F17.3°C 90% 2.0 mph S3.2 kmh S 7.1 mph11.4 kmh 30.05 in1017.6 mb 0.00 in0.0 mm 0.00 in0.0 mm 0.00 in0.0 mm
02:30 AM 66.2°F19.0°C 63.2°F17.3°C 90% 10.0 mph SW16.1 kmh SW 11.1 mph17.9 kmh 30.05 in1017.6 mb 0.00 in0.0 mm 0.00 in0.0 mm 0.00 in0.0 mm
02:45 AM 65.9°F18.8°C 62.9°F17.2°C 90% 4.0 mph SW6.4 kmh SW 7.1 mph11.4 kmh 30.04 in1017.3 mb 0.00 in0.0 mm 0.00 in0.0 mm 0.00 in0.0 mm
03:00 AM 65.8°F18.8°C 62.8°F17.1°C 90% 12.0 mph S19.3 kmh S 13.1 mph21.1 kmh 30.05 in1017.6 mb 0.00 in0.0 mm 0.00 in0.0 mm 0.00 in0.0 mm
03:15 AM 65.8°F18.8°C 62.8°F17.1°C 90% 3.0 mph S4.8 kmh S 6.1 mph9.8 kmh 30.05 in1017.6 mb 0.00 in0.0 mm 0.00 in0.0 mm 0.00 in0.0 mm
03:30 AM 65.6°F18.7°C 62.6°F17.0°C 90% 3.0 mph S4.8 kmh S 9.1 mph14.6 kmh 30.05 in1017.6 mb 0.00 in0.0 mm 0.00 in0.0 mm 0.00 in0.0 mm
03:45 AM 65.6°F18.7°C 62.6°F17.0°C 90% 4.0 mph S6.4 kmh S 7.1 mph11.4 kmh 30.05 in1017.6 mb 0.00 in0.0 mm 0.00 in0.0 mm 0.00 in0.0 mm
04:00 AM 65.5°F18.6°C 62.5°F16.9°C 90% 6.0 mph SSW9.7 kmh SSW 8.1 mph13.0 kmh 30.05 in1017.6 mb 0.00 in0.0 mm 0.00 in0.0 mm 0.00 in0.0 mm
04:15 AM 65.5°F18.6°C 62.8°F17.1°C 91% 1.0 mph SSE1.6 kmh SSE 9.1 mph14.6 kmh 30.05 in1017.6 mb 0.00 in0.0 mm 0.00 in0.0 mm 0.00 in0.0 mm
04:30 AM 65.2°F18.4°C 62.5°F16.9°C 91% 2.0 mph SSW3.2 kmh SSW 2.0 mph3.2 kmh 30.06 in1017.9 mb 0.00 in0.0 mm 0.00 in0.0 mm 0.00 in0.0 mm
04:45 AM 65.0°F18.3°C 62.3°F16.8°C 91% 5.0 mph SSW8.0 kmh SSW 9.1 mph14.6 kmh 30.07 in1018.3 mb 0.00 in0.0 mm 0.00 in0.0 mm 0.00 in0.0 mm
05:00 AM 65.0°F18.3°C 62.3°F16.8°C 91% 7.0 mph S11.3 kmh S 7.1 mph11.4 kmh 30.07 in1018.3 mb 0.00 in0.0 mm 0.00 in0.0 mm 0.00 in0.0 mm
05:15 AM 64.7°F18.2°C 62.4°F16.9°C 92% 5.0 mph SSW8.0 kmh SSW 8.1 mph13.0 kmh 30.08 in1018.6 mb 0.00 in0.0 mm 0.00 in0.0 mm 0.00 in0.0 mm
05:30 AM 64.6°F18.1°C 62.3°F16.8°C 92% 7.0 mph SSW11.3 kmh SSW 8.1 mph13.0 kmh 30.08 in1018.6 mb 0.00 in0.0 mm 0.00 in0.0 mm 0.00 in0.0 mm
05:45 AM 64.6°F18.1°C 62.3°F16.8°C 92% 3.0 mph SW4.8 kmh SW 4.0 mph6.4 kmh 30.08 in1018.6 mb 0.00 in0.0 mm 0.00 in0.0 mm 0.00 in0.0 mm
06:00 AM 64.7°F18.2°C 62.4°F16.9°C 92% 5.0 mph SSW8.0 kmh SSW 8.1 mph13.0 kmh 30.10 in1019.3 mb 0.00 in0.0 mm 0.00 in0.0 mm 0.00 in0.0 mm
06:15 AM 64.5°F18.1°C 62.2°F16.8°C 92% 4.0 mph SW6.4 kmh SW 6.1 mph9.8 kmh 30.10 in1019.3 mb 0.00 in0.0 mm 0.00 in0.0 mm 0.00 in0.0 mm
06:30 AM 64.4°F18.0°C 62.1°F16.7°C 92% 4.0 mph SW6.4 kmh SW 7.1 mph11.4 kmh 30.11 in1019.6 mb 0.00 in0.0 mm 0.00 in0.0 mm 0.00 in0.0 mm
06:45 AM 63.9°F17.7°C 61.9°F16.6°C 93% Calm Calm -- 30.12 in1020.0 mb 0.01 in0.3 mm 0.04 in1.0 mm 0.01 in0.3 mm
07:00 AM 63.4°F17.4°C 61.7°F16.5°C 94% 1.0 mph WSW1.6 kmh WSW 1.0 mph1.6 kmh 30.13 in1020.3 mb 0.01 in0.3 mm 0.00 in0.0 mm 0.01 in0.3 mm
07:15 AM 62.8°F17.1°C 61.4°F16.3°C 95% 2.0 mph NW3.2 kmh NW 2.0 mph3.2 kmh 30.15 in1021.0 mb 0.01 in0.3 mm 0.00 in0.0 mm 0.01 in0.3 mm
07:30 AM 57.7°F14.3°C 55.4°F13.0°C 92% 11.0 mph N17.7 kmh N 12.1 mph19.5 kmh 30.18 in1022.0 mb 0.04 in1.0 mm 0.12 in3.0 mm 0.04 in1.0 mm
07:45 AM 55.0°F12.8°C 53.0°F11.7°C 93% 9.0 mph N14.5 kmh N 14.1 mph22.7 kmh 30.20 in1022.7 mb 0.06 in1.5 mm 0.08 in2.0 mm 0.06 in1.5 mm
08:00 AM 53.9°F12.2°C 52.2°F11.2°C 94% 11.0 mph NE17.7 kmh NE 14.1 mph22.7 kmh 30.22 in1023.4 mb 0.10 in2.5 mm 0.05 in1.3 mm 0.10 in2.5 mm
08:15 AM 52.9°F11.6°C 51.5°F10.8°C 95% 6.0 mph NE9.7 kmh NE 16.2 mph26.1 kmh 30.23 in1023.7 mb 0.13 in3.3 mm 0.12 in3.0 mm 0.13 in3.3 mm
08:30 AM 51.3°F10.7°C 49.6°F9.8°C 94% 9.0 mph NNE14.5 kmh NNE 15.1 mph24.3 kmh 30.25 in1024.4 mb 0.12 in3.0 mm 0.00 in0.0 mm 0.13 in3.3 mm
08:45 AM 49.6°F9.8°C 47.6°F8.7°C 93% 9.0 mph NNE14.5 kmh NNE 24.2 mph38.9 kmh 30.27 in1025.1 mb 0.12 in3.0 mm 0.00 in0.0 mm 0.13 in3.3 mm
09:00 AM 47.6°F8.7°C 45.4°F7.4°C 92% 8.0 mph N12.9 kmh N 19.2 mph30.9 kmh 30.29 in1025.7 mb 0.05 in1.3 mm 0.00 in0.0 mm 0.13 in3.3 mm
09:15 AM 47.1°F8.4°C 45.5°F7.5°C 94% 10.0 mph N16.1 kmh N 14.1 mph22.7 kmh 30.29 in1025.7 mb 0.05 in1.3 mm 0.00 in0.0 mm 0.13 in3.3 mm
09:30 AM 45.5°F7.5°C 43.3°F6.3°C 92% 11.0 mph NNE17.7 kmh NNE 18.2 mph29.3 kmh 30.30 in1026.1 mb 0.01 in0.3 mm 0.00 in0.0 mm 0.13 in3.3 mm
09:45 AM 44.4°F6.9°C 42.5°F5.8°C 93% 15.0 mph NE24.1 kmh NE 17.2 mph27.7 kmh 30.32 in1026.8 mb 0.01 in0.3 mm 0.00 in0.0 mm 0.13 in3.3 mm
10:00 AM 44.1°F6.7°C 42.2°F5.7°C 93% 7.0 mph NE11.3 kmh NE 16.2 mph26.1 kmh 30.33 in1027.1 mb 0.01 in0.3 mm 0.00 in0.0 mm 0.13 in3.3 mm
10:15 AM 43.9°F6.6°C 42.0°F5.6°C 93% 4.0 mph N6.4 kmh N 13.1 mph21.1 kmh 30.34 in1027.4 mb 0.01 in0.3 mm 0.00 in0.0 mm 0.13 in3.3 mm
10:30 AM 43.9°F6.6°C 42.0°F5.6°C 93% 6.0 mph NNW9.7 kmh NNW 10.1 mph16.3 kmh 30.35 in1027.8 mb 0.00 in0.0 mm 0.00 in0.0 mm 0.13 in3.3 mm
10:45 AM 43.3°F6.3°C 41.4°F5.2°C 93% 7.0 mph NNE11.3 kmh NNE 13.1 mph21.1 kmh 30.36 in1028.1 mb 0.00 in0.0 mm 0.00 in0.0 mm 0.13 in3.3 mm
11:00 AM 43.1°F6.2°C 41.2°F5.1°C 93% 6.0 mph NE9.7 kmh NE 14.1 mph22.7 kmh 30.36 in1028.1 mb 0.00 in0.0 mm 0.00 in0.0 mm 0.13 in3.3 mm
11:15 AM 42.9°F6.1°C 40.5°F4.7°C 91% 9.0 mph NW14.5 kmh NW 10.1 mph16.3 kmh 30.38 in1028.8 mb 0.00 in0.0 mm 0.00 in0.0 mm 0.13 in3.3 mm
11:30 AM 42.8°F6.0°C 40.4°F4.7°C 91% 5.0 mph N8.0 kmh N 11.1 mph17.9 kmh 30.38 in1028.8 mb 0.00 in0.0 mm 0.00 in0.0 mm 0.13 in3.3 mm
11:45 AM 42.8°F6.0°C 39.8°F4.3°C 89% 4.0 mph N6.4 kmh N 13.1 mph21.1 kmh 30.39 in1029.1 mb 0.00 in0.0 mm 0.00 in0.0 mm 0.13 in3.3 mm
12:00 PM 42.7°F5.9°C 39.4°F4.1°C 88% 9.0 mph NNE14.5 kmh NNE 12.1 mph19.5 kmh 30.38 in1028.8 mb 0.00 in0.0 mm 0.00 in0.0 mm 0.13 in3.3 mm
12:15 PM 42.4°F5.8°C 38.8°F3.8°C 87% 6.0 mph N9.7 kmh N 14.1 mph22.7 kmh 30.39 in1029.1 mb 0.00 in0.0 mm 0.00 in0.0 mm 0.13 in3.3 mm
12:30 PM 42.4°F5.8°C 38.5°F3.6°C 86% 12.0 mph NE19.3 kmh NE 17.2 mph27.7 kmh 30.40 in1029.5 mb 0.00 in0.0 mm 0.00 in0.0 mm 0.13 in3.3 mm
12:45 PM 42.4°F5.8°C 38.2°F3.4°C 85% 8.0 mph NNE12.9 kmh NNE 17.2 mph27.7 kmh 30.40 in1029.5 mb 0.00 in0.0 mm 0.00 in0.0 mm 0.13 in3.3 mm
01:00 PM 43.0°F6.1°C 38.5°F3.6°C 84% 12.0 mph N19.3 kmh N 17.2 mph27.7 kmh 30.40 in1029.5 mb 0.00 in0.0 mm 0.00 in0.0 mm 0.13 in3.3 mm
01:15 PM 42.7°F5.9°C 38.2°F3.4°C 84% 6.0 mph NE9.7 kmh NE 8.1 mph13.0 kmh 30.40 in1029.5 mb 0.00 in0.0 mm 0.00 in0.0 mm 0.13 in3.3 mm
01:30 PM 42.5°F5.8°C 37.7°F3.2°C 83% 8.0 mph NNW12.9 kmh NNW 11.1 mph17.9 kmh 30.41 in1029.8 mb 0.00 in0.0 mm 0.00 in0.0 mm 0.13 in3.3 mm
01:45 PM 42.3°F5.7°C 37.5°F3.1°C 83% 5.0 mph NE8.0 kmh NE 13.1 mph21.1 kmh 30.41 in1029.8 mb 0.00 in0.0 mm 0.00 in0.0 mm 0.13 in3.3 mm
02:00 PM 42.8°F6.0°C 37.7°F3.2°C 82% 8.0 mph NNE12.9 kmh NNE 12.1 mph19.5 kmh 30.41 in1029.8 mb 0.00 in0.0 mm 0.00 in0.0 mm 0.13 in3.3 mm
02:15 PM 43.6°F6.4°C 38.2°F3.4°C 81% 1.0 mph N1.6 kmh N 6.1 mph9.8 kmh 30.42 in1030.1 mb 0.00 in0.0 mm 0.00 in0.0 mm 0.13 in3.3 mm
02:30 PM 44.1°F6.7°C 37.7°F3.2°C 78% 4.0 mph NE6.4 kmh NE 9.1 mph14.6 kmh 30.43 in1030.5 mb 0.00 in0.0 mm 0.00 in0.0 mm 0.13 in3.3 mm
02:45 PM 43.9°F6.6°C 38.5°F3.6°C 81% 5.0 mph N8.0 kmh N 11.1 mph17.9 kmh 30.44 in1030.8 mb 0.01 in0.3 mm 0.04 in1.0 mm 0.14 in3.6 mm
03:00 PM 43.1°F6.2°C 38.3°F3.5°C 83% 2.0 mph NE3.2 kmh NE 5.1 mph8.2 kmh 30.45 in1031.2 mb 0.01 in0.3 mm 0.00 in0.0 mm 0.14 in3.6 mm
03:15 PM 43.1°F6.2°C 38.3°F3.5°C 83% 5.0 mph NE8.0 kmh NE 8.1 mph13.0 kmh 30.44 in1030.8 mb 0.01 in0.3 mm 0.00 in0.0 mm 0.14 in3.6 mm
03:30 PM 43.5°F6.4°C 39.0°F3.9°C 84% 1.0 mph NNE1.6 kmh NNE 5.1 mph8.2 kmh 30.46 in1031.5 mb 0.01 in0.3 mm 0.00 in0.0 mm 0.14 in3.6 mm
03:45 PM 43.8°F6.6°C 39.0°F3.9°C 83% 3.0 mph NE4.8 kmh NE 5.1 mph8.2 kmh 30.47 in1031.8 mb 0.01 in0.3 mm 0.00 in0.0 mm 0.14 in3.6 mm
04:00 PM 43.9°F6.6°C 38.8°F3.8°C 82% 3.0 mph NE4.8 kmh NE 5.1 mph8.2 kmh 30.48 in1032.2 mb 0.00 in0.0 mm 0.00 in0.0 mm 0.14 in3.6 mm
04:15 PM 44.0°F6.7°C 37.3°F2.9°C 77% 3.0 mph NE4.8 kmh NE 3.0 mph4.8 kmh 30.49 in1032.5 mb 0.00 in0.0 mm 0.00 in0.0 mm 0.14 in3.6 mm
04:30 PM 44.4°F6.9°C 37.7°F3.2°C 77% 2.0 mph N3.2 kmh N 5.1 mph8.2 kmh 30.50 in1032.8 mb 0.00 in0.0 mm 0.00 in0.0 mm 0.14 in3.6 mm
04:45 PM 44.2°F6.8°C 35.8°F2.1°C 72% 2.0 mph NE3.2 kmh NE 8.1 mph13.0 kmh 30.50 in1032.8 mb 0.00 in0.0 mm 0.00 in0.0 mm 0.14 in3.6 mm
05:00 PM 44.0°F6.7°C 34.2°F1.2°C 68% 7.0 mph NE11.3 kmh NE 11.1 mph17.9 kmh 30.51 in1033.2 mb 0.00 in0.0 mm 0.00 in0.0 mm 0.14 in3.6 mm
05:15 PM 43.8°F6.6°C 33.6°F0.9°C 67% 4.0 mph N6.4 kmh N 8.1 mph13.0 kmh 30.52 in1033.5 mb 0.00 in0.0 mm 0.00 in0.0 mm 0.14 in3.6 mm
05:30 PM 43.5°F6.4°C 33.7°F0.9°C 68% 5.0 mph NNE8.0 kmh NNE 7.1 mph11.4 kmh 30.52 in1033.5 mb 0.00 in0.0 mm 0.00 in0.0 mm 0.14 in3.6 mm
05:45 PM 42.9°F6.1°C 33.1°F0.6°C 68% 2.0 mph NNE3.2 kmh NNE 4.0 mph6.4 kmh 30.53 in1033.9 mb 0.00 in0.0 mm 0.00 in0.0 mm 0.14 in3.6 mm
06:00 PM 42.4°F5.8°C 33.7°F0.9°C 71% 3.0 mph NE4.8 kmh NE 4.0 mph6.4 kmh 30.53 in1033.9 mb 0.00 in0.0 mm 0.00 in0.0 mm 0.14 in3.6 mm
06:15 PM 42.0°F5.6°C 33.7°F0.9°C 72% 1.0 mph NE1.6 kmh NE 2.0 mph3.2 kmh 30.54 in1034.2 mb 0.01 in0.3 mm 0.04 in1.0 mm 0.15 in3.8 mm
06:30 PM 41.1°F5.1°C 33.5°F0.8°C 74% 2.0 mph NE3.2 kmh NE 2.0 mph3.2 kmh 30.55 in1034.5 mb 0.01 in0.3 mm 0.00 in0.0 mm 0.15 in3.8 mm
06:45 PM 40.6°F4.8°C 34.0°F1.1°C 77% 1.0 mph NNE1.6 kmh NNE 1.0 mph1.6 kmh 30.56 in1034.9 mb 0.01 in0.3 mm 0.00 in0.0 mm 0.15 in3.8 mm
07:00 PM 39.9°F4.4°C 34.2°F1.2°C 80% Calm Calm -- 30.56 in1034.9 mb 0.01 in0.3 mm 0.00 in0.0 mm 0.15 in3.8 mm
07:15 PM 39.1°F3.9°C 34.1°F1.2°C 82% Calm Calm 1.0 mph1.6 kmh 30.57 in1035.2 mb 0.01 in0.3 mm 0.00 in0.0 mm 0.15 in3.8 mm
07:30 PM 38.5°F3.6°C 33.8°F1.0°C 83% Calm Calm -- 30.58 in1035.6 mb 0.00 in0.0 mm 0.00 in0.0 mm 0.15 in3.8 mm
07:45 PM 38.1°F3.4°C 34.3°F1.3°C 86% 2.0 mph NNE3.2 kmh NNE 2.0 mph3.2 kmh 30.58 in1035.6 mb 0.00 in0.0 mm 0.00 in0.0 mm 0.15 in3.8 mm
08:00 PM 37.5°F3.1°C 33.7°F0.9°C 86% Calm Calm 2.0 mph3.2 kmh 30.59 in1035.9 mb 0.00 in0.0 mm 0.00 in0.0 mm 0.15 in3.8 mm
08:15 PM 36.9°F2.7°C 33.7°F0.9°C 88% 2.0 mph NNE3.2 kmh NNE 4.0 mph6.4 kmh 30.59 in1035.9 mb 0.00 in0.0 mm 0.00 in0.0 mm 0.15 in3.8 mm
08:30 PM 36.6°F2.6°C 33.7°F0.9°C 89% 3.0 mph NNE4.8 kmh NNE 3.0 mph4.8 kmh 30.59 in1035.9 mb 0.00 in0.0 mm 0.00 in0.0 mm 0.15 in3.8 mm
08:45 PM 35.9°F2.2°C 33.2°F0.7°C 90% Calm Calm 1.0 mph1.6 kmh 30.61 in1036.6 mb 0.00 in0.0 mm 0.00 in0.0 mm 0.15 in3.8 mm
09:00 PM 35.6°F2.0°C 33.5°F0.8°C 92% 1.0 mph NNE1.6 kmh NNE 1.0 mph1.6 kmh 30.62 in1036.9 mb 0.00 in0.0 mm 0.00 in0.0 mm 0.15 in3.8 mm
09:15 PM 35.5°F1.9°C 33.4°F0.8°C 92% 1.0 mph N1.6 kmh N 2.0 mph3.2 kmh 30.62 in1036.9 mb 0.00 in0.0 mm 0.00 in0.0 mm 0.15 in3.8 mm
09:30 PM 35.3°F1.8°C 33.5°F0.8°C 93% 3.0 mph N4.8 kmh N 5.1 mph8.2 kmh 30.63 in1037.3 mb 0.00 in0.0 mm 0.00 in0.0 mm 0.15 in3.8 mm
09:45 PM 35.4°F1.9°C 33.3°F0.7°C 92% Calm Calm 6.1 mph9.8 kmh 30.64 in1037.6 mb 0.00 in0.0 mm 0.00 in0.0 mm 0.15 in3.8 mm
10:00 PM 34.8°F1.6°C 32.4°F0.2°C 91% Calm Calm 1.0 mph1.6 kmh 30.65 in1037.9 mb 0.00 in0.0 mm 0.00 in0.0 mm 0.15 in3.8 mm
10:15 PM 34.6°F1.4°C 31.7°F-0.2°C 89% Calm Calm -- 30.66 in1038.3 mb 0.00 in0.0 mm 0.00 in0.0 mm 0.15 in3.8 mm
10:30 PM 34.6°F1.4°C 32.2°F0.1°C 91% 2.0 mph N3.2 kmh N 4.0 mph6.4 kmh 30.66 in1038.3 mb 0.00 in0.0 mm 0.00 in0.0 mm 0.15 in3.8 mm
10:45 PM 34.5°F1.4°C 31.9°F-0.1°C 90% 3.0 mph N4.8 kmh N 6.1 mph9.8 kmh 30.66 in1038.3 mb 0.00 in0.0 mm 0.00 in0.0 mm 0.15 in3.8 mm
11:00 PM 35.1°F1.7°C 31.6°F-0.2°C 87% 2.0 mph N3.2 kmh N 4.0 mph6.4 kmh 30.66 in1038.3 mb 0.00 in0.0 mm 0.00 in0.0 mm 0.15 in3.8 mm
11:15 PM 35.4°F1.9°C 30.7°F-0.7°C 83% 3.0 mph N4.8 kmh N 6.1 mph9.8 kmh 30.66 in1038.3 mb 0.00 in0.0 mm 0.00 in0.0 mm 0.15 in3.8 mm
11:30 PM 35.9°F2.2°C 30.3°F-0.9°C 80% 5.0 mph NNE8.0 kmh NNE 7.1 mph11.4 kmh 30.66 in1038.3 mb 0.00 in0.0 mm 0.00 in0.0 mm 0.15 in3.8 mm
11:45 PM 36.6°F2.6°C 29.1°F-1.6°C 74% 5.0 mph NE8.0 kmh NE 8.1 mph13.0 kmh 30.67 in1038.6 mb 0.00 in0.0 mm 0.00 in0.0 mm 0.15 in3.8 mm